Time;durP1;ratioP1;P1;durP2;ratioP2;P2;SDS_P1;SDS_P2;PMS_P1;PMS_P2;Temp;Humidity;BMP_temperature;BMP_pressure;BME280_temperature;BME280_humidity;BME280_pressure;Samples;Min_cycle;Max_cycle;Signal;HPM_P1;HPM_P2
2023/09/30 00:02:21;;;;;;;12.93;10.77;;;;;;;;;;4978537;28;20031;-88
2023/09/30 00:04:47;;;;;;;16.20;11.40;;;;;;;;;;4978522;28;20030;-88
2023/09/30 00:07:13;;;;;;;18.25;11.85;;;;;;;;;;4979750;28;20109;-88
2023/09/30 00:12:43;;;;;;;15.68;10.95;;;;;;;;;;4979487;28;20106;-88
2023/09/30 00:15:09;;;;;;;19.23;10.43;;;;;;;;;;4979450;28;20033;-90
2023/09/30 00:17:35;;;;;;;18.17;11.13;;;;;;;;;;4978495;28;20034;-88
2023/09/30 00:20:03;;;;;;;17.33;11.27;;;;;;;;;;4978642;28;20364;-89
2023/09/30 00:22:30;;;;;;;13.05;10.77;;;;;;;;;;4978379;28;20168;-88
2023/09/30 00:25:14;;;;;;;18.25;11.15;;;;;;;;;;4978424;28;20037;-88
2023/09/30 00:27:41;;;;;;;15.25;10.82;;;;;;;;;;4978062;28;20045;-88
2023/09/30 00:30:07;;;;;;;20.83;11.45;;;;;;;;;;4978051;28;20051;-89
2023/09/30 00:32:33;;;;;;;15.63;10.93;;;;;;;;;;4979332;28;20288;-88
2023/09/30 00:34:59;;;;;;;16.33;10.55;;;;;;;;;;4978163;28;20034;-88
2023/09/30 00:37:25;;;;;;;18.13;10.63;;;;;;;;;;4978985;28;20026;-88
2023/09/30 00:39:51;;;;;;;15.98;10.90;;;;;;;;;;4977978;28;20042;-88
2023/09/30 00:42:18;;;;;;;14.63;10.38;;;;;;;;;;4977911;28;20058;-89
2023/09/30 00:44:44;;;;;;;15.25;10.80;;;;;;;;;;4978757;28;20069;-88
2023/09/30 00:47:10;;;;;;;17.70;10.57;;;;;;;;;;4978765;28;20416;-88
2023/09/30 00:49:37;;;;;;;14.73;10.77;;;;;;;;;;4979243;28;20027;-88
2023/09/30 00:52:03;;;;;;;16.95;10.93;;;;;;;;;;4977695;28;20058;-88
2023/09/30 00:54:30;;;;;;;16.42;10.82;;;;;;;;;;4978014;28;20161;-88
2023/09/30 00:56:57;;;;;;;15.90;10.98;;;;;;;;;;4978951;28;20027;-89
2023/09/30 00:59:25;;;;;;;13.77;10.88;;;;;;;;;;4977698;28;20042;-89
2023/09/30 01:01:51;;;;;;;18.23;10.65;;;;;;;;;;4978589;28;20029;-89
2023/09/30 01:04:17;;;;;;;20.55;10.68;;;;;;;;;;4959367;29;20079;-89
2023/09/30 01:06:43;;;;;;;23.08;11.40;;;;;;;;;;4958371;29;20074;-89
2023/09/30 01:12:13;;;;;;;17.52;10.52;;;;;;;;;;4972616;28;20038;-89
2023/09/30 01:14:40;;;;;;;20.08;10.95;;;;;;;;;;4978845;28;20030;-88
2023/09/30 01:17:13;;;;;;;18.27;11.30;;;;;;;;;;4978830;28;20050;-90
2023/09/30 01:19:39;;;;;;;22.50;10.75;;;;;;;;;;4977733;28;20340;-88
2023/09/30 01:22:05;;;;;;;16.13;11.40;;;;;;;;;;4978519;28;20027;-88
2023/09/30 01:24:49;;;;;;;15.90;11.40;;;;;;;;;;4978485;28;20027;-88
2023/09/30 01:27:18;;;;;;;18.50;11.60;;;;;;;;;;4977930;28;20034;-88
2023/09/30 01:29:44;;;;;;;20.55;10.68;;;;;;;;;;4978885;28;20027;-88
2023/09/30 01:32:11;;;;;;;14.88;10.73;;;;;;;;;;4978174;28;20027;-88
2023/09/30 01:34:37;;;;;;;15.98;10.93;;;;;;;;;;4977508;28;20118;-88
2023/09/30 01:37:04;;;;;;;21.98;11.68;;;;;;;;;;4978380;28;20039;-88
2023/09/30 01:39:50;;;;;;;21.75;12.07;;;;;;;;;;4977470;28;20073;-89
2023/09/30 01:42:16;;;;;;;17.65;11.02;;;;;;;;;;4977064;28;20050;-89
2023/09/30 01:44:42;;;;;;;15.18;11.27;;;;;;;;;;4978398;28;20404;-89
2023/09/30 01:47:08;;;;;;;15.95;11.05;;;;;;;;;;4977309;28;20077;-88
2023/09/30 01:49:34;;;;;;;16.15;11.43;;;;;;;;;;4977747;28;20050;-89
2023/09/30 01:52:00;;;;;;;20.75;11.35;;;;;;;;;;4977183;28;20022;-88
2023/09/30 01:54:45;;;;;;;17.10;11.45;;;;;;;;;;4977210;28;20031;-89
2023/09/30 01:57:11;;;;;;;19.05;11.65;;;;;;;;;;4978084;28;20436;-89
2023/09/30 01:59:37;;;;;;;17.52;12.90;;;;;;;;;;4977187;28;20049;-88
2023/09/30 02:02:03;;;;;;;18.33;11.65;;;;;;;;;;4978238;28;20367;-88
2023/09/30 02:04:30;;;;;;;20.42;12.80;;;;;;;;;;4977111;28;20038;-89
2023/09/30 02:06:56;;;;;;;19.17;12.55;;;;;;;;;;4978385;28;20027;-88
2023/09/30 02:09:22;;;;;;;18.92;12.93;;;;;;;;;;4978169;28;20027;-89
2023/09/30 02:11:48;;;;;;;19.58;13.95;;;;;;;;;;4977355;28;20023;-89
2023/09/30 02:14:14;;;;;;;22.08;14.77;;;;;;;;;;4979995;28;20023;-88
2023/09/30 02:16:41;;;;;;;21.23;13.88;;;;;;;;;;4980793;28;20031;-88
2023/09/30 02:19:10;;;;;;;22.73;14.07;;;;;;;;;;4980663;28;20051;-88
2023/09/30 02:21:36;;;;;;;19.83;14.05;;;;;;;;;;4980660;28;20425;-88
2023/09/30 02:24:02;;;;;;;22.77;14.02;;;;;;;;;;4981832;28;20401;-88
2023/09/30 02:26:29;;;;;;;22.73;14.27;;;;;;;;;;4980555;28;20054;-88
2023/09/30 02:28:55;;;;;;;23.23;14.52;;;;;;;;;;4980573;28;20453;-88
2023/09/30 02:31:21;;;;;;;16.67;13.82;;;;;;;;;;4980537;28;20031;-88
2023/09/30 02:33:47;;;;;;;27.05;14.15;;;;;;;;;;4980645;28;20332;-88
2023/09/30 02:36:14;;;;;;;24.25;13.27;;;;;;;;;;4980558;28;20023;-88
2023/09/30 02:38:41;;;;;;;24.02;12.15;;;;;;;;;;4981251;28;20440;-88
2023/09/30 02:41:07;;;;;;;19.75;12.90;;;;;;;;;;4980119;28;20039;-88
2023/09/30 02:43:33;;;;;;;26.98;17.90;;;;;;;;;;4980033;28;20077;-88
2023/09/30 02:45:59;;;;;;;31.95;26.10;;;;;;;;;;4981200;28;20085;-88
2023/09/30 02:48:25;;;;;;;28.95;25.33;;;;;;;;;;4980341;28;20027;-88
2023/09/30 02:50:53;;;;;;;26.95;18.67;;;;;;;;;;4980119;28;20023;-88
2023/09/30 02:53:19;;;;;;;20.80;16.85;;;;;;;;;;4980928;28;20298;-87
2023/09/30 02:58:49;;;;;;;24.98;18.83;;;;;;;;;;4981004;28;20205;-88
2023/09/30 03:01:19;;;;;;;22.25;15.90;;;;;;;;;;4979786;28;20034;-89
2023/09/30 03:03:45;;;;;;;25.58;15.27;;;;;;;;;;4989168;28;20036;-88
2023/09/30 03:06:11;;;;;;;22.27;15.60;;;;;;;;;;5000493;28;20065;-89
2023/09/30 03:08:38;;;;;;;23.02;15.55;;;;;;;;;;4999183;28;20050;-88
2023/09/30 03:14:07;;;;;;;22.05;16.30;;;;;;;;;;5000409;28;20072;-88
2023/09/30 03:16:34;;;;;;;24.73;15.48;;;;;;;;;;4979885;28;20039;-88
2023/09/30 03:19:00;;;;;;;22.50;15.52;;;;;;;;;;4979529;28;20031;-87
2023/09/30 03:21:26;;;;;;;19.92;15.48;;;;;;;;;;4980812;28;20416;-88
2023/09/30 03:23:52;;;;;;;23.70;15.75;;;;;;;;;;4980386;28;20428;-89
2023/09/30 03:29:22;;;;;;;23.98;14.60;;;;;;;;;;4980581;28;20037;-88
2023/09/30 03:31:48;;;;;;;20.27;14.95;;;;;;;;;;4980415;28;20092;-88
2023/09/30 03:34:16;;;;;;;22.92;13.95;;;;;;;;;;4979328;28;20023;-88
2023/09/30 03:36:42;;;;;;;20.80;14.00;;;;;;;;;;4979419;28;20060;-88
2023/09/30 03:42:49;;;;;;;16.42;13.45;;;;;;;;;;4980318;28;20030;-89
2023/09/30 03:45:15;;;;;;;19.13;13.43;;;;;;;;;;4941485;29;20419;-87
2023/09/30 03:47:43;;;;;;;19.35;13.38;;;;;;;;;;4940357;29;20481;-87
2023/09/30 03:50:15;;;;;;;26.55;14.13;;;;;;;;;;4926761;29;20043;-89
2023/09/30 03:52:44;;;;;;;16.33;12.95;;;;;;;;;;4940609;29;20111;-88
2023/09/30 03:58:15;;;;;;;18.23;13.15;;;;;;;;;;4941059;29;20035;-88
2023/09/30 04:00:41;;;;;;;18.48;13.85;;;;;;;;;;4941307;29;20016;-88
2023/09/30 04:03:07;;;;;;;17.02;12.43;;;;;;;;;;4940183;29;20024;-90
2023/09/30 04:05:36;;;;;;;17.15;12.70;;;;;;;;;;4941197;29;20034;-89
2023/09/30 04:08:02;;;;;;;18.88;12.85;;;;;;;;;;4941170;29;20044;-88
2023/09/30 04:13:45;;;;;;;18.20;12.63;;;;;;;;;;4941367;29;20436;-89
2023/09/30 04:16:11;;;;;;;15.60;12.25;;;;;;;;;;4940228;29;20039;-88
2023/09/30 04:18:40;;;;;;;21.00;12.45;;;;;;;;;;4940226;29;20035;-87
2023/09/30 04:21:07;;;;;;;21.80;13.82;;;;;;;;;;4940269;29;20043;-88
2023/09/30 04:23:36;;;;;;;26.70;13.32;;;;;;;;;;4940344;29;20067;-88
2023/09/30 04:26:40;;;;;;;22.20;13.50;;;;;;;;;;4940126;29;20410;-88
2023/09/30 04:29:10;;;;;;;19.35;13.38;;;;;;;;;;4940845;29;20035;-88
2023/09/30 04:31:38;;;;;;;19.33;13.27;;;;;;;;;;4940357;29;20430;-88
2023/09/30 04:34:04;;;;;;;18.10;12.88;;;;;;;;;;4939779;29;20028;-89
2023/09/30 04:36:30;;;;;;;24.10;14.15;;;;;;;;;;4939485;29;20470;-88
2023/09/30 04:38:56;;;;;;;23.08;13.02;;;;;;;;;;4939694;29;20427;-88
2023/09/30 04:41:25;;;;;;;22.77;14.15;;;;;;;;;;4939788;29;20031;-88
2023/09/30 04:43:52;;;;;;;20.20;13.63;;;;;;;;;;4955728;28;20090;-88
2023/09/30 04:46:22;;;;;;;25.50;14.40;;;;;;;;;;4978066;28;20302;-89
2023/09/30 04:59:49;;;;;;;22.25;16.60;;;;;;;;;;5135705;27;20432;-90
2023/09/30 05:12:53;;;;;;;25.75;15.95;;;;;;;;;;5075008;28;20379;-91
2023/09/30 05:15:20;;;;;;;27.27;16.58;;;;;;;;;;5074608;28;20039;-90
2023/09/30 05:17:46;;;;;;;28.38;16.88;;;;;;;;;;5074764;28;20027;-91
2023/09/30 05:20:12;;;;;;;25.55;15.85;;;;;;;;;;5073653;28;20070;-90
2023/09/30 05:22:40;;;;;;;33.17;16.15;;;;;;;;;;5073714;28;20445;-89
2023/09/30 05:25:07;;;;;;;25.88;16.40;;;;;;;;;;5074899;28;20345;-90
2023/09/30 05:27:33;;;;;;;28.58;16.95;;;;;;;;;;5075062;28;20017;-90
2023/09/30 05:29:59;;;;;;;35.88;17.25;;;;;;;;;;5074578;28;20318;-88
2023/09/30 05:32:26;;;;;;;27.13;16.33;;;;;;;;;;5073527;28;20025;-88
2023/09/30 05:34:54;;;;;;;33.05;16.35;;;;;;;;;;5074321;28;20017;-89
2023/09/30 05:37:21;;;;;;;26.98;16.10;;;;;;;;;;5073697;28;20033;-90
2023/09/30 05:39:50;;;;;;;29.90;15.20;;;;;;;;;;5073316;28;20029;-91
2023/09/30 05:42:18;;;;;;;19.55;13.80;;;;;;;;;;5074208;28;20033;-91
2023/09/30 05:44:45;;;;;;;23.08;15.55;;;;;;;;;;5073774;28;20039;-90
2023/09/30 05:59:01;;;;;;;23.60;14.65;;;;;;;;;;5115926;27;20365;-88
2023/09/30 06:01:27;;;;;;;20.50;13.90;;;;;;;;;;5114192;28;20023;-88
2023/09/30 06:06:58;;;;;;;34.78;14.82;;;;;;;;;;5115334;28;20130;-86
2023/09/30 06:09:25;;;;;;;26.77;14.45;;;;;;;;;;5114955;28;20027;-85
2023/09/30 06:11:51;;;;;;;25.02;14.40;;;;;;;;;;5113733;28;20044;-86
2023/09/30 06:14:17;;;;;;;25.35;13.80;;;;;;;;;;5114240;28;20347;-88
2023/09/30 06:16:43;;;;;;;19.40;14.05;;;;;;;;;;5114009;28;20089;-87
2023/09/30 06:19:09;;;;;;;19.77;14.50;;;;;;;;;;5113910;28;20024;-86
2023/09/30 06:21:35;;;;;;;18.05;14.02;;;;;;;;;;5113752;28;20027;-86
2023/09/30 06:24:01;;;;;;;22.85;14.48;;;;;;;;;;5114066;28;20107;-87
2023/09/30 06:26:29;;;;;;;21.98;14.50;;;;;;;;;;5113787;28;20036;-86
2023/09/30 06:28:56;;;;;;;25.45;14.50;;;;;;;;;;5113934;28;20123;-93
2023/09/30 06:31:23;;;;;;;21.05;14.52;;;;;;;;;;5114235;28;20024;-93
2023/09/30 06:36:53;;;;;;;22.00;14.48;;;;;;;;;;5114793;28;20042;-92
2023/09/30 06:39:19;;;;;;;22.35;14.48;;;;;;;;;;5113789;28;20103;-92
2023/09/30 06:41:46;;;;;;;17.50;13.52;;;;;;;;;;5114640;28;20020;-91
2023/09/30 06:44:12;;;;;;;20.60;15.48;;;;;;;;;;5113652;28;20024;-92
2023/09/30 06:46:39;;;;;;;20.67;14.18;;;;;;;;;;5115011;28;20024;-91
2023/09/30 06:49:37;;;;;;;19.50;13.88;;;;;;;;;;5114556;28;20028;-92
2023/09/30 06:52:05;;;;;;;18.40;14.70;;;;;;;;;;5095044;28;20497;-92
2023/09/30 06:54:32;;;;;;;20.55;15.05;;;;;;;;;;5094340;28;20044;-92
2023/09/30 06:56:58;;;;;;;19.52;14.50;;;;;;;;;;5092488;28;20036;-93
2023/09/30 06:59:25;;;;;;;20.63;14.27;;;;;;;;;;5079534;28;20029;-92
2023/09/30 07:01:51;;;;;;;21.27;14.80;;;;;;;;;;5064175;28;20021;-94
2023/09/30 07:04:17;;;;;;;19.08;13.52;;;;;;;;;;5079425;28;20107;-93
2023/09/30 07:06:44;;;;;;;24.75;14.00;;;;;;;;;;5076251;28;20032;-93
2023/09/30 07:09:11;;;;;;;19.20;12.07;;;;;;;;;;5059260;28;20380;-93
2023/09/30 07:11:38;;;;;;;22.33;12.13;;;;;;;;;;5079924;28;20029;-93
2023/09/30 07:14:04;;;;;;;17.17;12.02;;;;;;;;;;5078864;28;20025;-93
2023/09/30 07:16:30;;;;;;;28.05;13.27;;;;;;;;;;5080317;28;20031;-91
2023/09/30 07:18:57;;;;;;;18.05;13.40;;;;;;;;;;5080022;28;20028;-93
2023/09/30 07:21:23;;;;;;;23.67;12.82;;;;;;;;;;5080066;28;20371;-94
2023/09/30 07:23:52;;;;;;;35.15;12.68;;;;;;;;;;5080290;28;20028;-94
2023/09/30 07:26:18;;;;;;;20.67;11.70;;;;;;;;;;5078726;28;20295;-94
2023/09/30 07:28:44;;;;;;;21.00;12.77;;;;;;;;;;5079058;28;20032;-94
2023/09/30 07:31:10;;;;;;;18.00;12.18;;;;;;;;;;5079155;28;20059;-94
2023/09/30 07:34:14;;;;;;;20.73;12.02;;;;;;;;;;5084987;28;20028;-93
2023/09/30 07:36:40;;;;;;;21.60;13.25;;;;;;;;;;5083413;28;20490;-92
2023/09/30 07:39:06;;;;;;;16.08;12.48;;;;;;;;;;5079608;28;20413;-93
2023/09/30 07:41:38;;;;;;;22.52;11.93;;;;;;;;;;5074874;28;20036;-94
2023/09/30 07:44:05;;;;;;;17.42;12.07;;;;;;;;;;5058556;28;20104;-91
2023/09/30 07:46:31;;;;;;;18.25;11.48;;;;;;;;;;5065146;28;20033;-93
2023/09/30 07:48:59;;;;;;;15.07;10.70;;;;;;;;;;5076254;28;20029;-89
2023/09/30 07:51:25;;;;;;;16.27;11.68;;;;;;;;;;5079036;28;20032;-90
2023/09/30 07:53:52;;;;;;;16.42;11.15;;;;;;;;;;5079083;28;20032;-89
2023/09/30 07:56:18;;;;;;;18.55;9.18;;;;;;;;;;5078769;28;20056;-90
2023/09/30 07:58:44;;;;;;;14.85;9.15;;;;;;;;;;5078178;28;20044;-91
2023/09/30 08:01:10;;;;;;;13.50;9.32;;;;;;;;;;5079091;28;20020;-88
2023/09/30 08:03:36;;;;;;;12.30;9.85;;;;;;;;;;5078220;28;20052;-88
2023/09/30 08:06:03;;;;;;;15.75;10.32;;;;;;;;;;5078213;28;20033;-90
2023/09/30 08:08:30;;;;;;;23.23;11.48;;;;;;;;;;5078157;28;20020;-90
2023/09/30 08:10:56;;;;;;;16.90;11.23;;;;;;;;;;5076662;28;20075;-89
2023/09/30 08:13:23;;;;;;;17.42;12.27;;;;;;;;;;5078023;28;20426;-91
2023/09/30 08:15:51;;;;;;;23.35;11.43;;;;;;;;;;5074761;28;20029;-90
2023/09/30 08:18:32;;;;;;;18.30;11.80;;;;;;;;;;5077889;28;20041;-91
2023/09/30 08:20:59;;;;;;;15.98;10.32;;;;;;;;;;5078821;28;20356;-90
2023/09/30 08:23:25;;;;;;;18.38;9.38;;;;;;;;;;5078020;28;20131;-92
2023/09/30 08:25:51;;;;;;;19.33;9.27;;;;;;;;;;5078792;28;20051;-93
2023/09/30 08:28:17;;;;;;;13.30;8.50;;;;;;;;;;5078459;28;20024;-90
2023/09/30 08:30:43;;;;;;;18.55;8.75;;;;;;;;;;5077815;28;20037;-94
2023/09/30 08:51:20;;;;;;;14.68;9.35;;;;;;;;;;5077280;27;20430;-95
2023/09/30 08:53:48;;;;;;;17.58;9.45;;;;;;;;;;5076800;28;20029;-94
2023/09/30 08:56:15;;;;;;;12.88;8.88;;;;;;;;;;5073861;28;20032;-91
2023/09/30 08:58:41;;;;;;;13.45;8.98;;;;;;;;;;5074058;28;20021;-95
2023/09/30 09:01:09;;;;;;;12.10;8.00;;;;;;;;;;5075178;28;20025;-95
2023/09/30 09:03:36;;;;;;;14.52;8.75;;;;;;;;;;5074533;28;20063;-93
2023/09/30 09:06:02;;;;;;;16.15;8.18;;;;;;;;;;5074502;28;20021;-90
2023/09/30 09:08:28;;;;;;;14.07;9.88;;;;;;;;;;5073580;28;20033;-92
2023/09/30 09:10:58;;;;;;;14.65;8.93;;;;;;;;;;5074192;28;20074;-94
2023/09/30 09:13:27;;;;;;;16.35;8.57;;;;;;;;;;5074872;28;20021;-94
2023/09/30 09:16:07;;;;;;;17.55;8.60;;;;;;;;;;5074652;28;20025;-94
2023/09/30 09:18:35;;;;;;;20.75;9.75;;;;;;;;;;5096004;22;20091;-94
2023/09/30 09:21:31;;;;;;;14.82;8.23;;;;;;;;;;5103447;28;20295;-96
2023/09/30 09:23:57;;;;;;;12.52;7.20;;;;;;;;;;5036708;28;20124;-87
2023/09/30 09:32:50;;;;;;;10.68;7.50;;;;;;;;;;5142577;22;20099;-94
2023/09/30 09:35:20;;;;;;;10.38;6.63;;;;;;;;;;5053131;28;20029;-95
2023/09/30 09:37:54;;;;;;;14.75;7.13;;;;;;;;;;5053177;28;20071;-95
2023/09/30 09:40:24;;;;;;;15.63;6.47;;;;;;;;;;5062607;22;20050;-94
2023/09/30 09:49:58;;;;;;;;;;;;;;;;;;;;;
2023/09/30 09:52:51;;;;;;;12.75;6.72;;;;;;;;;;5242303;22;21691;-95
2023/09/30 10:07:58;;;;;;;9.25;5.30;;;;;;;;;;4980925;28;20421;-92
2023/09/30 10:10:45;;;;;;;15.07;5.55;;;;;;;;;;4969921;28;20034;-93
2023/09/30 10:13:33;;;;;;;10.50;5.13;;;;;;;;;;4971637;28;20101;-93
2023/09/30 10:16:05;;;;;;;13.18;5.72;;;;;;;;;;4983544;28;20030;-93
2023/09/30 10:19:10;;;;;;;;;;;;;;;;;;;;;
2023/09/30 10:21:38;;;;;;;12.57;5.38;;;;;;;;;;4918237;28;20079;-94
2023/09/30 10:24:46;;;;;;;10.75;5.50;;;;;;;;;;4966460;28;20050;-94
2023/09/30 10:27:58;;;;;;;7.35;5.40;;;;;;;;;;4929138;29;20079;-95
2023/09/30 10:30:27;;;;;;;;;;;;;;;;;;4887005;29;20033;-94
2023/09/30 10:32:57;;;;;;;9.90;5.35;;;;;;;;;;4885111;29;19915;-92
2023/09/30 10:35:28;;;;;;;13.18;7.18;;;;;;;;;;4869044;29;20081;-93
2023/09/30 10:38:13;;;;;;;11.95;5.78;;;;;;;;;;4859061;29;20045;-93
2023/09/30 10:40:39;;;;;;;8.52;5.50;;;;;;;;;;4884864;29;20309;-94
2023/09/30 10:43:06;;;;;;;11.80;4.93;;;;;;;;;;5061450;22;20143;-83
2023/09/30 10:46:05;;;;;;;9.73;4.82;;;;;;;;;;5042602;28;20033;-95
2023/09/30 10:48:34;;;;;;;10.70;4.88;;;;;;;;;;4965016;28;20035;-93
2023/09/30 10:51:12;;;;;;;8.30;4.72;;;;;;;;;;5047615;22;20048;-94
2023/09/30 10:53:46;;;;;;;8.32;4.65;;;;;;;;;;5080119;28;20028;-93
2023/09/30 10:56:27;;;;;;;13.05;5.18;;;;;;;;;;5083169;28;20021;-92
2023/09/30 10:58:56;;;;;;;9.55;5.30;;;;;;;;;;5018866;28;20046;-89
2023/09/30 11:01:23;;;;;;;18.10;12.85;;;;;;;;;;5376852;22;20049;-92
2023/09/30 11:03:52;;;;;;;42.08;32.03;;;;;;;;;;5089152;22;20062;-96
2023/09/30 11:06:20;;;;;;;46.85;36.45;;;;;;;;;;5075179;28;20037;-94
2023/09/30 11:08:59;;;;;;;16.17;5.53;;;;;;;;;;5079825;28;20108;-92
2023/09/30 11:11:53;;;;;;;7.63;4.60;;;;;;;;;;5077319;28;20033;-93
2023/09/30 11:26:01;;;;;;;8.57;4.68;;;;;;;;;;5157493;27;20414;-93
2023/09/30 11:28:36;;;;;;;8.18;4.38;;;;;;;;;;5157124;27;20035;-92
2023/09/30 11:31:03;;;;;;;11.00;4.20;;;;;;;;;;5156103;27;20034;-94
2023/09/30 11:33:48;;;;;;;5.93;4.18;;;;;;;;;;5156692;27;20026;-94
2023/09/30 11:36:15;;;;;;;10.55;5.07;;;;;;;;;;5153086;27;20029;-95
2023/09/30 11:38:44;;;;;;;11.90;4.75;;;;;;;;;;5155693;27;20022;-91
2023/09/30 11:41:10;;;;;;;9.68;4.32;;;;;;;;;;5156371;27;20463;-92
2023/09/30 11:43:37;;;;;;;9.27;4.18;;;;;;;;;;5155521;27;20315;-91
2023/09/30 11:46:10;;;;;;;9.35;4.00;;;;;;;;;;5155873;27;20023;-92
2023/09/30 11:48:56;;;;;;;9.13;4.75;;;;;;;;;;5156734;27;20023;-89
2023/09/30 11:51:26;;;;;;;10.80;4.60;;;;;;;;;;5155578;27;20046;-88
2023/09/30 11:53:53;;;;;;;13.20;4.43;;;;;;;;;;5155304;27;20030;-92
2023/09/30 11:56:19;;;;;;;7.13;4.57;;;;;;;;;;5155973;27;20026;-91
2023/09/30 11:58:50;;;;;;;9.70;4.72;;;;;;;;;;5155233;27;20304;-93
2023/09/30 12:01:16;;;;;;;11.38;4.60;;;;;;;;;;5156444;27;20043;-91
2023/09/30 12:03:42;;;;;;;12.07;4.90;;;;;;;;;;5156247;27;20054;-91
2023/09/30 12:06:13;;;;;;;8.63;4.40;;;;;;;;;;5156405;27;20046;-86
2023/09/30 12:08:39;;;;;;;6.93;4.32;;;;;;;;;;5155995;27;20019;-93
2023/09/30 12:11:06;;;;;;;14.98;5.57;;;;;;;;;;5155790;27;20026;-92
2023/09/30 12:13:32;;;;;;;10.63;4.50;;;;;;;;;;5154749;27;20420;-92
2023/09/30 12:15:58;;;;;;;8.95;4.72;;;;;;;;;;5155627;27;20027;-92
2023/09/30 12:18:24;;;;;;;6.03;3.97;;;;;;;;;;5154695;27;20023;-93
2023/09/30 12:20:53;;;;;;;12.27;4.43;;;;;;;;;;5154710;27;20412;-93
2023/09/30 12:23:20;;;;;;;10.48;4.35;;;;;;;;;;5154729;27;20320;-92
2023/09/30 12:25:46;;;;;;;9.13;3.80;;;;;;;;;;5147922;27;20047;-92
2023/09/30 12:28:17;;;;;;;12.10;4.07;;;;;;;;;;5141859;27;20099;-94
2023/09/30 12:30:43;;;;;;;13.52;5.90;;;;;;;;;;5141772;27;20031;-92
2023/09/30 12:33:10;;;;;;;15.45;6.15;;;;;;;;;;5140617;27;20409;-91
2023/09/30 12:35:40;;;;;;;7.20;4.10;;;;;;;;;;5140757;27;20019;-92
2023/09/30 12:38:06;;;;;;;9.63;3.90;;;;;;;;;;5140637;27;20492;-91
2023/09/30 12:40:33;;;;;;;10.48;4.18;;;;;;;;;;5140587;27;20469;-89
2023/09/30 12:42:59;;;;;;;7.95;3.70;;;;;;;;;;5141344;27;20023;-89
2023/09/30 12:45:27;;;;;;;6.68;3.78;;;;;;;;;;5140358;27;20448;-89
2023/09/30 12:47:56;;;;;;;12.52;3.78;;;;;;;;;;5141363;27;20031;-91
2023/09/30 12:50:22;;;;;;;8.18;4.10;;;;;;;;;;5141489;27;20042;-89
2023/09/30 12:52:49;;;;;;;9.13;4.13;;;;;;;;;;5141220;27;20027;-90
2023/09/30 12:55:15;;;;;;;8.63;4.35;;;;;;;;;;5141601;27;20048;-93
2023/09/30 12:57:41;;;;;;;13.45;5.78;;;;;;;;;;5139860;27;20051;-91
2023/09/30 13:00:09;;;;;;;15.40;5.80;;;;;;;;;;5141822;27;20353;-90
2023/09/30 13:02:36;;;;;;;7.85;4.00;;;;;;;;;;5140255;27;20023;-91
2023/09/30 13:05:02;;;;;;;7.35;4.10;;;;;;;;;;5139927;27;20122;-90
2023/09/30 13:07:28;;;;;;;7.82;3.80;;;;;;;;;;5140962;27;20035;-90
2023/09/30 13:09:56;;;;;;;11.70;4.10;;;;;;;;;;5139853;27;20058;-89
2023/09/30 13:12:22;;;;;;;8.60;4.05;;;;;;;;;;5140828;27;20039;-82
2023/09/30 13:14:48;;;;;;;17.15;4.88;;;;;;;;;;5140228;27;20031;-82
2023/09/30 13:17:15;;;;;;;8.70;3.92;;;;;;;;;;5136056;27;20099;-82
2023/09/30 13:19:41;;;;;;;14.77;4.50;;;;;;;;;;5119557;28;20020;-82
2023/09/30 13:22:07;;;;;;;8.98;4.45;;;;;;;;;;5118672;28;20320;-83
2023/09/30 13:24:39;;;;;;;18.88;4.85;;;;;;;;;;5118909;28;20052;-90
2023/09/30 13:27:06;;;;;;;14.05;4.20;;;;;;;;;;5119154;28;20058;-90
2023/09/30 13:29:32;;;;;;;14.25;4.43;;;;;;;;;;5120265;28;20028;-90
2023/09/30 13:31:58;;;;;;;18.55;5.00;;;;;;;;;;5119244;27;20035;-86
2023/09/30 13:34:25;;;;;;;9.57;4.60;;;;;;;;;;5120329;27;20062;-92
2023/09/30 13:36:51;;;;;;;11.05;4.38;;;;;;;;;;5119511;28;20377;-89
2023/09/30 13:39:21;;;;;;;7.85;4.25;;;;;;;;;;5118671;28;20019;-90
2023/09/30 13:41:47;;;;;;;5.80;4.22;;;;;;;;;;5123188;27;20033;-91
2023/09/30 13:44:14;;;;;;;11.70;4.30;;;;;;;;;;5139976;27;20080;-90
2023/09/30 13:46:40;;;;;;;9.95;4.53;;;;;;;;;;5141999;27;20084;-93
2023/09/30 13:49:06;;;;;;;13.68;4.60;;;;;;;;;;5139158;27;20065;-90
2023/09/30 13:51:32;;;;;;;15.43;4.72;;;;;;;;;;5139130;27;20051;-90
2023/09/30 13:53:58;;;;;;;12.50;4.75;;;;;;;;;;5140058;27;20079;-90
2023/09/30 13:56:24;;;;;;;12.68;4.22;;;;;;;;;;5139116;27;20027;-90
2023/09/30 13:58:52;;;;;;;10.80;3.80;;;;;;;;;;5138874;27;20034;-89
2023/09/30 14:01:19;;;;;;;8.75;4.65;;;;;;;;;;5138901;27;20015;-90
2023/09/30 14:03:49;;;;;;;10.80;4.43;;;;;;;;;;5139718;27;20075;-90
2023/09/30 14:06:15;;;;;;;8.52;4.00;;;;;;;;;;5139047;27;20032;-92
2023/09/30 14:08:45;;;;;;;8.75;3.88;;;;;;;;;;5119938;27;20059;-89
2023/09/30 14:11:12;;;;;;;15.23;4.37;;;;;;;;;;5135288;27;20027;-89
2023/09/30 14:13:39;;;;;;;8.68;4.40;;;;;;;;;;5133451;27;20055;-89
2023/09/30 14:16:06;;;;;;;9.38;4.50;;;;;;;;;;5118851;28;20031;-89
2023/09/30 14:18:36;;;;;;;11.00;4.15;;;;;;;;;;5118103;28;20027;-89
2023/09/30 14:21:02;;;;;;;12.73;4.75;;;;;;;;;;5119117;27;20028;-89
2023/09/30 14:23:29;;;;;;;11.77;4.38;;;;;;;;;;5127724;27;20084;-90
2023/09/30 14:25:55;;;;;;;11.38;4.07;;;;;;;;;;5127108;27;20043;-91
2023/09/30 14:28:22;;;;;;;12.60;4.30;;;;;;;;;;5138622;27;20027;-92
2023/09/30 14:31:25;;;;;;;10.25;4.15;;;;;;;;;;5138407;27;20068;-93
2023/09/30 14:33:51;;;;;;;8.70;4.05;;;;;;;;;;5120889;27;20144;-92
2023/09/30 14:36:18;;;;;;;6.75;4.22;;;;;;;;;;5120080;27;20027;-92
2023/09/30 14:38:45;;;;;;;8.63;4.50;;;;;;;;;;5117699;28;20016;-91
2023/09/30 14:41:12;;;;;;;13.88;4.80;;;;;;;;;;5123392;27;20055;-91
2023/09/30 14:43:38;;;;;;;14.65;4.53;;;;;;;;;;5137369;27;20054;-90
2023/09/30 14:46:04;;;;;;;8.90;4.32;;;;;;;;;;5133363;27;20022;-90
2023/09/30 14:48:31;;;;;;;21.45;4.40;;;;;;;;;;5127409;27;20023;-89
2023/09/30 14:50:57;;;;;;;12.15;4.45;;;;;;;;;;5127468;27;20389;-90
2023/09/30 14:53:24;;;;;;;6.80;3.80;;;;;;;;;;5117874;28;20309;-90
2023/09/30 14:55:50;;;;;;;8.57;4.22;;;;;;;;;;5117448;28;20050;-90
2023/09/30 14:58:16;;;;;;;9.82;4.70;;;;;;;;;;5118805;28;20023;-90
2023/09/30 15:00:43;;;;;;;10.48;4.18;;;;;;;;;;5117816;27;20080;-90
2023/09/30 15:03:10;;;;;;;9.95;4.10;;;;;;;;;;5122118;27;20110;-90
2023/09/30 15:05:37;;;;;;;7.60;4.40;;;;;;;;;;5134608;27;20031;-90
2023/09/30 15:08:03;;;;;;;8.27;4.15;;;;;;;;;;5135304;27;20031;-90
2023/09/30 15:10:29;;;;;;;10.00;3.90;;;;;;;;;;5137613;27;20030;-90
2023/09/30 15:12:57;;;;;;;9.57;4.05;;;;;;;;;;5138730;27;20324;-90
2023/09/30 15:15:23;;;;;;;12.77;4.15;;;;;;;;;;5138558;27;20019;-91
2023/09/30 15:17:49;;;;;;;7.55;4.72;;;;;;;;;;5137696;27;20337;-89
2023/09/30 15:20:16;;;;;;;7.55;4.72;;;;;;;;;;5138754;27;20069;-89
2023/09/30 15:22:42;;;;;;;12.45;4.82;;;;;;;;;;5138538;27;20396;-90
2023/09/30 15:25:09;;;;;;;10.68;5.13;;;;;;;;;;5138594;27;20055;-91
2023/09/30 15:27:36;;;;;;;16.80;4.93;;;;;;;;;;5137834;27;20293;-90
2023/09/30 15:30:03;;;;;;;7.88;4.68;;;;;;;;;;5138541;27;20019;-90
2023/09/30 15:32:29;;;;;;;10.90;4.47;;;;;;;;;;5138460;27;20098;-91
2023/09/30 15:34:55;;;;;;;9.82;4.80;;;;;;;;;;5137472;27;20027;-90
2023/09/30 15:37:21;;;;;;;12.38;5.00;;;;;;;;;;5138755;27;20023;-91
2023/09/30 15:39:47;;;;;;;18.77;4.78;;;;;;;;;;5137377;28;20366;-90
2023/09/30 15:42:13;;;;;;;19.67;5.30;;;;;;;;;;5137684;27;20534;-90
2023/09/30 15:44:40;;;;;;;12.25;5.38;;;;;;;;;;5137239;27;20045;-91
2023/09/30 15:47:06;;;;;;;13.75;5.03;;;;;;;;;;5138427;27;20023;-90
2023/09/30 15:49:33;;;;;;;11.00;4.20;;;;;;;;;;5137413;27;20020;-90
2023/09/30 15:51:59;;;;;;;10.80;4.70;;;;;;;;;;5137353;28;20023;-90
2023/09/30 15:54:25;;;;;;;9.68;4.82;;;;;;;;;;5137013;27;20038;-88
2023/09/30 15:56:51;;;;;;;13.50;5.18;;;;;;;;;;5137362;27;20023;-87
2023/09/30 15:59:17;;;;;;;16.95;5.22;;;;;;;;;;5137083;27;20404;-86
2023/09/30 16:01:43;;;;;;;12.05;6.25;;;;;;;;;;5140819;27;20346;-88
2023/09/30 16:04:10;;;;;;;24.13;6.72;;;;;;;;;;5142144;27;20024;-87
2023/09/30 16:06:36;;;;;;;21.10;6.45;;;;;;;;;;5140122;27;20067;-85
2023/09/30 16:09:02;;;;;;;19.88;6.72;;;;;;;;;;5125126;27;20298;-85
2023/09/30 16:11:28;;;;;;;12.75;6.22;;;;;;;;;;5129046;27;20034;-85
2023/09/30 16:13:55;;;;;;;21.40;7.50;;;;;;;;;;5123438;27;20409;-85
2023/09/30 16:16:21;;;;;;;13.18;6.90;;;;;;;;;;5123536;27;20024;-85
2023/09/30 16:18:47;;;;;;;23.60;7.32;;;;;;;;;;5122063;27;20020;-85
2023/09/30 16:21:13;;;;;;;24.00;7.53;;;;;;;;;;5120306;27;20046;-85
2023/09/30 16:23:39;;;;;;;17.15;7.70;;;;;;;;;;5143486;27;20054;-85
2023/09/30 16:26:05;;;;;;;19.50;7.25;;;;;;;;;;5161840;27;20070;-87
2023/09/30 16:28:34;;;;;;;12.48;6.70;;;;;;;;;;5165664;27;20027;-91
2023/09/30 16:31:01;;;;;;;14.65;6.80;;;;;;;;;;5165105;27;20049;-87
2023/09/30 16:33:30;;;;;;;12.02;7.03;;;;;;;;;;5183070;27;20049;-91
2023/09/30 16:35:58;;;;;;;14.10;7.03;;;;;;;;;;5164363;27;20019;-95
2023/09/30 16:38:25;;;;;;;15.50;7.43;;;;;;;;;;5182082;27;20029;-94